sensor_id;sensor_type;location;lat;lon;timestamp;temperature;humidity
19732;DHT22;10017;54.350;18.532;2022-07-01T00:00:21;19.20;99.90
19732;DHT22;10017;54.350;18.532;2022-07-01T00:02:55;19.20;99.90
19732;DHT22;10017;54.350;18.532;2022-07-01T00:05:30;19.20;99.90
19732;DHT22;10017;54.350;18.532;2022-07-01T00:08:02;19.20;99.90
19732;DHT22;10017;54.350;18.532;2022-07-01T00:10:35;19.20;99.90
19732;DHT22;10017;54.350;18.532;2022-07-01T00:13:09;19.20;99.90
19732;DHT22;10017;54.350;18.532;2022-07-01T00:15:43;19.20;99.90
19732;DHT22;10017;54.350;18.532;2022-07-01T00:18:15;19.20;99.90
19732;DHT22;10017;54.350;18.532;2022-07-01T00:20:47;19.20;99.90
19732;DHT22;10017;54.350;18.532;2022-07-01T00:23:19;19.20;99.90
19732;DHT22;10017;54.350;18.532;2022-07-01T00:25:52;19.20;99.90
19732;DHT22;10017;54.350;18.532;2022-07-01T00:28:28;19.30;99.90
19732;DHT22;10017;54.350;18.532;2022-07-01T00:31:02;19.30;99.90
19732;DHT22;10017;54.350;18.532;2022-07-01T00:33:34;19.30;99.90
19732;DHT22;10017;54.350;18.532;2022-07-01T00:36:07;19.30;99.90
19732;DHT22;10017;54.350;18.532;2022-07-01T00:38:39;19.30;99.90
19732;DHT22;10017;54.350;18.532;2022-07-01T00:41:14;19.30;99.90
19732;DHT22;10017;54.350;18.532;2022-07-01T00:43:46;19.30;99.90
19732;DHT22;10017;54.350;18.532;2022-07-01T00:46:27;19.30;99.90
19732;DHT22;10017;54.350;18.532;2022-07-01T00:48:59;19.30;99.90
19732;DHT22;10017;54.350;18.532;2022-07-01T00:51:32;19.30;99.90
19732;DHT22;10017;54.350;18.532;2022-07-01T00:54:04;19.30;99.90
19732;DHT22;10017;54.350;18.532;2022-07-01T00:56:38;19.20;99.90
19732;DHT22;10017;54.350;18.532;2022-07-01T00:59:10;19.20;99.90
19732;DHT22;10017;54.350;18.532;2022-07-01T01:01:43;19.10;99.90
19732;DHT22;10017;54.350;18.532;2022-07-01T01:04:17;19.10;99.90
19732;DHT22;10017;54.350;18.532;2022-07-01T01:06:49;19.10;99.90
19732;DHT22;10017;54.350;18.532;2022-07-01T01:09:21;19.10;99.90
19732;DHT22;10017;54.350;18.532;2022-07-01T01:11:56;19.10;99.90
19732;DHT22;10017;54.350;18.532;2022-07-01T01:14:29;19.00;99.90
19732;DHT22;10017;54.350;18.532;2022-07-01T01:17:01;19.00;99.90
19732;DHT22;10017;54.350;18.532;2022-07-01T01:19:36;19.00;99.90
19732;DHT22;10017;54.350;18.532;2022-07-01T01:22:14;18.90;99.90
19732;DHT22;10017;54.350;18.532;2022-07-01T01:24:49;18.90;99.90
19732;DHT22;10017;54.350;18.532;2022-07-01T01:27:21;18.90;99.90
19732;DHT22;10017;54.350;18.532;2022-07-01T01:29:52;18.90;99.90
19732;DHT22;10017;54.350;18.532;2022-07-01T01:32:28;18.80;99.90
19732;DHT22;10017;54.350;18.532;2022-07-01T01:35:01;18.80;99.90
19732;DHT22;10017;54.350;18.532;2022-07-01T01:37:34;18.80;99.90
19732;DHT22;10017;54.350;18.532;2022-07-01T01:40:06;18.80;99.90
19732;DHT22;10017;54.350;18.532;2022-07-01T01:42:39;18.80;99.90
19732;DHT22;10017;54.350;18.532;2022-07-01T01:45:13;18.80;99.90
19732;DHT22;10017;54.350;18.532;2022-07-01T01:47:45;18.80;99.90
19732;DHT22;10017;54.350;18.532;2022-07-01T01:50:17;18.80;99.90
19732;DHT22;10017;54.350;18.532;2022-07-01T01:52:51;18.80;99.90
19732;DHT22;10017;54.350;18.532;2022-07-01T01:55:23;18.80;99.90
19732;DHT22;10017;54.350;18.532;2022-07-01T01:57:58;18.90;99.90
19732;DHT22;10017;54.350;18.532;2022-07-01T02:00:30;18.90;99.90
19732;DHT22;10017;54.350;18.532;2022-07-01T02:03:03;18.90;99.90
19732;DHT22;10017;54.350;18.532;2022-07-01T02:05:35;18.90;99.90
19732;DHT22;10017;54.350;18.532;2022-07-01T02:08:10;18.90;99.90
19732;DHT22;10017;54.350;18.532;2022-07-01T02:10:42;19.00;99.90
19732;DHT22;10017;54.350;18.532;2022-07-01T02:13:14;19.10;99.90
19732;DHT22;10017;54.350;18.532;2022-07-01T02:15:46;19.10;99.90
19732;DHT22;10017;54.350;18.532;2022-07-01T02:18:21;19.10;99.90
19732;DHT22;10017;54.350;18.532;2022-07-01T02:20:53;19.20;99.90
19732;DHT22;10017;54.350;18.532;2022-07-01T02:23:25;19.20;99.90
19732;DHT22;10017;54.350;18.532;2022-07-01T02:25:57;19.30;99.90
19732;DHT22;10017;54.350;18.532;2022-07-01T02:28:29;19.30;99.90
19732;DHT22;10017;54.350;18.532;2022-07-01T02:31:01;19.50;99.90
19732;DHT22;10017;54.350;18.532;2022-07-01T02:33:39;19.60;99.90
19732;DHT22;10017;54.350;18.532;2022-07-01T02:36:19;19.70;99.90
19732;DHT22;10017;54.350;18.532;2022-07-01T02:38:56;19.70;99.90
19732;DHT22;10017;54.350;18.532;2022-07-01T02:41:32;19.80;99.90
19732;DHT22;10017;54.350;18.532;2022-07-01T02:44:24;19.80;99.90
19732;DHT22;10017;54.350;18.532;2022-07-01T02:46:57;19.80;99.90
19732;DHT22;10017;54.350;18.532;2022-07-01T02:49:29;19.90;99.90
19732;DHT22;10017;54.350;18.532;2022-07-01T02:52:01;19.80;99.90
19732;DHT22;10017;54.350;18.532;2022-07-01T02:54:33;19.80;99.90
19732;DHT22;10017;54.350;18.532;2022-07-01T02:57:05;19.80;99.90
19732;DHT22;10017;54.350;18.532;2022-07-01T02:59:38;19.90;99.90
19732;DHT22;10017;54.350;18.532;2022-07-01T03:02:09;19.90;99.90
19732;DHT22;10017;54.350;18.532;2022-07-01T03:04:41;19.90;99.90
19732;DHT22;10017;54.350;18.532;2022-07-01T03:07:17;19.90;99.90
19732;DHT22;10017;54.350;18.532;2022-07-01T03:09:50;19.90;99.90
19732;DHT22;10017;54.350;18.532;2022-07-01T03:12:25;19.90;99.90
19732;DHT22;10017;54.350;18.532;2022-07-01T03:15:02;19.90;99.90
19732;DHT22;10017;54.350;18.532;2022-07-01T03:17:40;20.00;99.90
19732;DHT22;10017;54.350;18.532;2022-07-01T03:20:14;20.00;99.90
19732;DHT22;10017;54.350;18.532;2022-07-01T03:22:47;20.10;99.90
19732;DHT22;10017;54.350;18.532;2022-07-01T03:25:21;20.10;99.90
19732;DHT22;10017;54.350;18.532;2022-07-01T03:27:54;20.20;99.90
19732;DHT22;10017;54.350;18.532;2022-07-01T03:30:26;20.20;99.90
19732;DHT22;10017;54.350;18.532;2022-07-01T03:32:58;20.30;99.90
19732;DHT22;10017;54.350;18.532;2022-07-01T03:35:33;20.30;99.90
19732;DHT22;10017;54.350;18.532;2022-07-01T03:38:07;20.40;99.90
19732;DHT22;10017;54.350;18.532;2022-07-01T03:40:40;20.40;99.90
19732;DHT22;10017;54.350;18.532;2022-07-01T03:43:12;20.40;99.90
19732;DHT22;10017;54.350;18.532;2022-07-01T03:45:48;20.40;99.90
19732;DHT22;10017;54.350;18.532;2022-07-01T03:48:23;20.50;99.90
19732;DHT22;10017;54.350;18.532;2022-07-01T03:50:55;20.50;99.90
19732;DHT22;10017;54.350;18.532;2022-07-01T03:53:27;20.60;99.90
19732;DHT22;10017;54.350;18.532;2022-07-01T03:56:17;20.50;99.90
19732;DHT22;10017;54.350;18.532;2022-07-01T03:58:49;20.60;99.90
19732;DHT22;10017;54.350;18.532;2022-07-01T04:01:21;20.60;99.90
19732;DHT22;10017;54.350;18.532;2022-07-01T04:03:53;20.60;99.90
19732;DHT22;10017;54.350;18.532;2022-07-01T04:06:26;20.60;99.90
19732;DHT22;10017;54.350;18.532;2022-07-01T04:08:58;20.60;99.90
19732;DHT22;10017;54.350;18.532;2022-07-01T04:11:31;20.70;99.90
19732;DHT22;10017;54.350;18.532;2022-07-01T04:14:03;20.70;99.90
19732;DHT22;10017;54.350;18.532;2022-07-01T04:16:36;20.70;99.90
19732;DHT22;10017;54.350;18.532;2022-07-01T04:19:09;20.80;99.90
19732;DHT22;10017;54.350;18.532;2022-07-01T04:21:43;20.80;99.90
19732;DHT22;10017;54.350;18.532;2022-07-01T04:24:33;20.90;99.90
19732;DHT22;10017;54.350;18.532;2022-07-01T04:27:05;21.10;99.90
19732;DHT22;10017;54.350;18.532;2022-07-01T04:29:37;21.20;99.90
19732;DHT22;10017;54.350;18.532;2022-07-01T04:32:11;21.40;99.90
19732;DHT22;10017;54.350;18.532;2022-07-01T04:34:43;21.50;99.90
19732;DHT22;10017;54.350;18.532;2022-07-01T04:37:15;21.70;99.90
19732;DHT22;10017;54.350;18.532;2022-07-01T04:39:47;21.90;99.90
19732;DHT22;10017;54.350;18.532;2022-07-01T04:42:21;22.10;99.90
19732;DHT22;10017;54.350;18.532;2022-07-01T04:44:53;22.30;99.90
19732;DHT22;10017;54.350;18.532;2022-07-01T04:47:26;22.50;99.90
19732;DHT22;10017;54.350;18.532;2022-07-01T04:50:01;22.70;99.90
19732;DHT22;10017;54.350;18.532;2022-07-01T04:52:33;22.80;99.90
19732;DHT22;10017;54.350;18.532;2022-07-01T04:55:08;23.00;99.90
19732;DHT22;10017;54.350;18.532;2022-07-01T04:57:40;23.20;99.90
19732;DHT22;10017;54.350;18.532;2022-07-01T05:00:12;23.30;99.90
19732;DHT22;10017;54.350;18.532;2022-07-01T05:02:44;23.40;60.70
19732;DHT22;10017;54.350;18.532;2022-07-01T05:05:16;23.60;41.70
19732;DHT22;10017;54.350;18.532;2022-07-01T05:07:51;23.70;32.00
19732;DHT22;10017;54.350;18.532;2022-07-01T05:10:23;23.80;36.90
19732;DHT22;10017;54.350;18.532;2022-07-01T05:12:55;23.90;28.20
19732;DHT22;10017;54.350;18.532;2022-07-01T05:15:29;24.00;22.40
19732;DHT22;10017;54.350;18.532;2022-07-01T05:18:01;24.20;16.90
19732;DHT22;10017;54.350;18.532;2022-07-01T05:20:52;24.30;17.10
19732;DHT22;10017;54.350;18.532;2022-07-01T05:23:42;24.40;15.40
19732;DHT22;10017;54.350;18.532;2022-07-01T05:26:14;24.60;8.70
19732;DHT22;10017;54.350;18.532;2022-07-01T05:28:49;24.70;7.30
19732;DHT22;10017;54.350;18.532;2022-07-01T05:31:23;24.80;3.30
19732;DHT22;10017;54.350;18.532;2022-07-01T05:33:57;24.80;1.00
19732;DHT22;10017;54.350;18.532;2022-07-01T05:36:35;24.90;1.00
19732;DHT22;10017;54.350;18.532;2022-07-01T05:39:09;25.10;1.00
19732;DHT22;10017;54.350;18.532;2022-07-01T05:41:41;25.30;1.00
19732;DHT22;10017;54.350;18.532;2022-07-01T05:44:16;25.70;1.00
19732;DHT22;10017;54.350;18.532;2022-07-01T05:46:50;26.90;1.00
19732;DHT22;10017;54.350;18.532;2022-07-01T05:49:23;28.70;1.00
19732;DHT22;10017;54.350;18.532;2022-07-01T05:51:55;30.70;1.00
19732;DHT22;10017;54.350;18.532;2022-07-01T05:54:27;32.60;1.00
19732;DHT22;10017;54.350;18.532;2022-07-01T05:56:59;34.20;99.90
19732;DHT22;10017;54.350;18.532;2022-07-01T05:59:38;35.60;1.00
19732;DHT22;10017;54.350;18.532;2022-07-01T06:02:10;36.80;1.00
19732;DHT22;10017;54.350;18.532;2022-07-01T06:04:42;37.80;1.00
19732;DHT22;10017;54.350;18.532;2022-07-01T06:07:17;38.70;99.90
19732;DHT22;10017;54.350;18.532;2022-07-01T06:09:49;39.20;1.00
19732;DHT22;10017;54.350;18.532;2022-07-01T06:12:21;39.30;1.00
19732;DHT22;10017;54.350;18.532;2022-07-01T06:14:53;39.10;1.00
19732;DHT22;10017;54.350;18.532;2022-07-01T06:17:25;38.00;99.90
19732;DHT22;10017;54.350;18.532;2022-07-01T06:19:57;37.40;99.90
19732;DHT22;10017;54.350;18.532;2022-07-01T06:22:32;36.70;14.30
19732;DHT22;10017;54.350;18.532;2022-07-01T06:25:04;36.00;1.00
19732;DHT22;10017;54.350;18.532;2022-07-01T06:27:40;36.20;43.50
19732;DHT22;10017;54.350;18.532;2022-07-01T06:30:13;36.30;99.90
19732;DHT22;10017;54.350;18.532;2022-07-01T06:32:45;37.10;1.00
19732;DHT22;10017;54.350;18.532;2022-07-01T06:35:21;37.80;99.90
19732;DHT22;10017;54.350;18.532;2022-07-01T06:37:55;37.80;99.90
19732;DHT22;10017;54.350;18.532;2022-07-01T06:40:34;37.90;99.90
19732;DHT22;10017;54.350;18.532;2022-07-01T06:43:08;37.90;1.00
19732;DHT22;10017;54.350;18.532;2022-07-01T06:45:40;38.10;1.00
19732;DHT22;10017;54.350;18.532;2022-07-01T06:48:12;38.20;1.00
19732;DHT22;10017;54.350;18.532;2022-07-01T06:50:48;38.80;99.90
19732;DHT22;10017;54.350;18.532;2022-07-01T06:53:20;39.20;99.90
19732;DHT22;10017;54.350;18.532;2022-07-01T06:55:52;39.60;99.90
19732;DHT22;10017;54.350;18.532;2022-07-01T06:58:29;39.30;99.90
19732;DHT22;10017;54.350;18.532;2022-07-01T07:01:04;39.30;49.60
19732;DHT22;10017;54.350;18.532;2022-07-01T07:03:36;39.40;99.90
19732;DHT22;10017;54.350;18.532;2022-07-01T07:06:10;39.30;80.40
19732;DHT22;10017;54.350;18.532;2022-07-01T07:08:42;39.30;1.00
19732;DHT22;10017;54.350;18.532;2022-07-01T07:11:14;38.70;1.00
19732;DHT22;10017;54.350;18.532;2022-07-01T07:13:51;38.60;1.00
19732;DHT22;10017;54.350;18.532;2022-07-01T07:16:25;39.00;99.90
19732;DHT22;10017;54.350;18.532;2022-07-01T07:18:58;39.10;1.00
19732;DHT22;10017;54.350;18.532;2022-07-01T07:21:30;38.60;99.90
19732;DHT22;10017;54.350;18.532;2022-07-01T07:24:02;38.00;99.90
19732;DHT22;10017;54.350;18.532;2022-07-01T07:26:35;37.40;99.90
19732;DHT22;10017;54.350;18.532;2022-07-01T07:29:07;36.60;1.00
19732;DHT22;10017;54.350;18.532;2022-07-01T07:31:39;35.20;99.90
19732;DHT22;10017;54.350;18.532;2022-07-01T07:34:11;34.20;1.00
19732;DHT22;10017;54.350;18.532;2022-07-01T07:36:43;33.70;1.00
19732;DHT22;10017;54.350;18.532;2022-07-01T07:39:15;32.80;1.00
19732;DHT22;10017;54.350;18.532;2022-07-01T07:41:47;32.30;1.00
19732;DHT22;10017;54.350;18.532;2022-07-01T07:44:21;31.70;12.20
19732;DHT22;10017;54.350;18.532;2022-07-01T07:46:53;31.30;99.90
19732;DHT22;10017;54.350;18.532;2022-07-01T07:49:25;30.90;1.00
19732;DHT22;10017;54.350;18.532;2022-07-01T07:51:57;30.90;1.00
19732;DHT22;10017;54.350;18.532;2022-07-01T07:54:31;31.00;1.00
19732;DHT22;10017;54.350;18.532;2022-07-01T07:57:07;30.90;1.00
19732;DHT22;10017;54.350;18.532;2022-07-01T07:59:39;30.80;99.90
19732;DHT22;10017;54.350;18.532;2022-07-01T08:02:12;31.00;99.90
19732;DHT22;10017;54.350;18.532;2022-07-01T08:04:46;31.40;99.90
19732;DHT22;10017;54.350;18.532;2022-07-01T08:07:21;31.90;1.00
19732;DHT22;10017;54.350;18.532;2022-07-01T08:09:58;31.90;1.00
19732;DHT22;10017;54.350;18.532;2022-07-01T08:12:29;31.80;1.00
19732;DHT22;10017;54.350;18.532;2022-07-01T08:15:02;31.90;1.00
19732;DHT22;10017;54.350;18.532;2022-07-01T08:17:34;32.10;1.00
19732;DHT22;10017;54.350;18.532;2022-07-01T08:20:07;32.00;1.00
19732;DHT22;10017;54.350;18.532;2022-07-01T08:22:39;31.90;1.00
19732;DHT22;10017;54.350;18.532;2022-07-01T08:25:11;31.80;1.00
19732;DHT22;10017;54.350;18.532;2022-07-01T08:27:43;31.90;1.00
19732;DHT22;10017;54.350;18.532;2022-07-01T08:30:18;31.50;1.00
19732;DHT22;10017;54.350;18.532;2022-07-01T08:32:50;31.50;1.00
19732;DHT22;10017;54.350;18.532;2022-07-01T08:35:22;31.50;1.00
19732;DHT22;10017;54.350;18.532;2022-07-01T08:37:59;31.50;67.80
19732;DHT22;10017;54.350;18.532;2022-07-01T08:40:32;31.70;82.80
19732;DHT22;10017;54.350;18.532;2022-07-01T08:43:05;31.80;99.40
19732;DHT22;10017;54.350;18.532;2022-07-01T08:45:37;31.80;72.20
19732;DHT22;10017;54.350;18.532;2022-07-01T08:48:09;31.80;6.90
19732;DHT22;10017;54.350;18.532;2022-07-01T08:50:41;31.80;99.90
19732;DHT22;10017;54.350;18.532;2022-07-01T08:53:13;31.70;99.90
19732;DHT22;10017;54.350;18.532;2022-07-01T08:55:46;31.50;89.60
19732;DHT22;10017;54.350;18.532;2022-07-01T08:58:36;31.50;99.90
19732;DHT22;10017;54.350;18.532;2022-07-01T09:03:45;31.30;99.90
19732;DHT22;10017;54.350;18.532;2022-07-01T09:06:22;31.30;1.00
19732;DHT22;10017;54.350;18.532;2022-07-01T09:08:54;31.20;99.90
19732;DHT22;10017;54.350;18.532;2022-07-01T09:11:26;31.30;1.00
19732;DHT22;10017;54.350;18.532;2022-07-01T09:14:10;31.30;1.00
19732;DHT22;10017;54.350;18.532;2022-07-01T09:16:45;31.20;1.00
19732;DHT22;10017;54.350;18.532;2022-07-01T09:19:21;31.30;1.00
19732;DHT22;10017;54.350;18.532;2022-07-01T09:21:57;31.30;1.00
19732;DHT22;10017;54.350;18.532;2022-07-01T09:24:33;31.50;1.00
19732;DHT22;10017;54.350;18.532;2022-07-01T09:27:13;31.40;1.00
19732;DHT22;10017;54.350;18.532;2022-07-01T09:29:52;31.50;1.00
19732;DHT22;10017;54.350;18.532;2022-07-01T09:32:24;31.40;1.00
19732;DHT22;10017;54.350;18.532;2022-07-01T09:34:56;31.20;1.00
19732;DHT22;10017;54.350;18.532;2022-07-01T09:37:31;31.20;1.00
19732;DHT22;10017;54.350;18.532;2022-07-01T09:40:06;31.30;1.00
19732;DHT22;10017;54.350;18.532;2022-07-01T09:42:44;31.00;1.00
19732;DHT22;10017;54.350;18.532;2022-07-01T09:45:17;30.90;1.00
19732;DHT22;10017;54.350;18.532;2022-07-01T09:47:49;30.70;1.00
19732;DHT22;10017;54.350;18.532;2022-07-01T09:50:24;30.80;1.00
19732;DHT22;10017;54.350;18.532;2022-07-01T09:52:56;30.90;1.00
19732;DHT22;10017;54.350;18.532;2022-07-01T09:55:30;30.70;1.00
19732;DHT22;10017;54.350;18.532;2022-07-01T09:58:03;30.70;1.00
19732;DHT22;10017;54.350;18.532;2022-07-01T10:00:36;30.70;1.00
19732;DHT22;10017;54.350;18.532;2022-07-01T10:03:09;30.50;1.00
19732;DHT22;10017;54.350;18.532;2022-07-01T10:05:54;30.30;1.00
19732;DHT22;10017;54.350;18.532;2022-07-01T10:11:47;30.20;1.00
19732;DHT22;10017;54.350;18.532;2022-07-01T10:14:24;29.90;1.00
19732;DHT22;10017;54.350;18.532;2022-07-01T10:16:56;29.60;1.00
19732;DHT22;10017;54.350;18.532;2022-07-01T10:19:30;29.20;1.00
19732;DHT22;10017;54.350;18.532;2022-07-01T10:22:30;29.00;1.00
19732;DHT22;10017;54.350;18.532;2022-07-01T10:25:34;28.80;1.00
19732;DHT22;10017;54.350;18.532;2022-07-01T10:33:39;28.50;1.00
19732;DHT22;10017;54.350;18.532;2022-07-01T10:36:32;28.30;1.00
19732;DHT22;10017;54.350;18.532;2022-07-01T10:39:09;28.60;1.00
19732;DHT22;10017;54.350;18.532;2022-07-01T10:44:17;29.10;1.00
19732;DHT22;10017;54.350;18.532;2022-07-01T10:52:12;29.40;1.00
19732;DHT22;10017;54.350;18.532;2022-07-01T10:55:10;29.60;1.00
19732;DHT22;10017;54.350;18.532;2022-07-01T10:57:42;29.70;1.00
19732;DHT22;10017;54.350;18.532;2022-07-01T11:02:47;29.50;1.00
19732;DHT22;10017;54.350;18.532;2022-07-01T11:05:22;29.60;1.00
19732;DHT22;10017;54.350;18.532;2022-07-01T11:07:55;29.60;1.00
19732;DHT22;10017;54.350;18.532;2022-07-01T11:10:27;29.30;1.00
19732;DHT22;10017;54.350;18.532;2022-07-01T11:13:00;29.10;1.00
19732;DHT22;10017;54.350;18.532;2022-07-01T11:15:33;29.10;1.00
19732;DHT22;10017;54.350;18.532;2022-07-01T11:18:06;29.20;1.00
19732;DHT22;10017;54.350;18.532;2022-07-01T11:20:38;29.40;1.00
19732;DHT22;10017;54.350;18.532;2022-07-01T11:23:12;29.50;1.00
19732;DHT22;10017;54.350;18.532;2022-07-01T11:25:44;29.60;1.00
19732;DHT22;10017;54.350;18.532;2022-07-01T11:28:16;29.80;1.00
19732;DHT22;10017;54.350;18.532;2022-07-01T11:30:48;29.80;1.00
19732;DHT22;10017;54.350;18.532;2022-07-01T11:33:20;29.80;1.00
19732;DHT22;10017;54.350;18.532;2022-07-01T11:35:52;29.90;1.00
19732;DHT22;10017;54.350;18.532;2022-07-01T11:38:45;29.90;1.00
19732;DHT22;10017;54.350;18.532;2022-07-01T11:41:35;29.80;1.00
19732;DHT22;10017;54.350;18.532;2022-07-01T11:44:08;29.60;1.00
19732;DHT22;10017;54.350;18.532;2022-07-01T11:46:49;29.60;1.00
19732;DHT22;10017;54.350;18.532;2022-07-01T11:49:22;29.60;1.00
19732;DHT22;10017;54.350;18.532;2022-07-01T11:52:01;29.80;1.00
19732;DHT22;10017;54.350;18.532;2022-07-01T11:54:38;29.90;1.00
19732;DHT22;10017;54.350;18.532;2022-07-01T11:57:12;29.90;1.00
19732;DHT22;10017;54.350;18.532;2022-07-01T11:59:49;29.90;1.00
19732;DHT22;10017;54.350;18.532;2022-07-01T12:02:22;29.90;1.00
19732;DHT22;10017;54.350;18.532;2022-07-01T12:04:55;29.90;1.00
19732;DHT22;10017;54.350;18.532;2022-07-01T12:07:27;30.10;1.00
19732;DHT22;10017;54.350;18.532;2022-07-01T12:09:59;30.20;1.00
19732;DHT22;10017;54.350;18.532;2022-07-01T12:12:33;30.10;1.00
19732;DHT22;10017;54.350;18.532;2022-07-01T12:15:06;30.20;1.00
19732;DHT22;10017;54.350;18.532;2022-07-01T12:17:44;30.40;1.00
19732;DHT22;10017;54.350;18.532;2022-07-01T12:20:31;30.50;1.00
19732;DHT22;10017;54.350;18.532;2022-07-01T12:23:13;30.50;1.00
19732;DHT22;10017;54.350;18.532;2022-07-01T12:25:50;30.60;1.00
19732;DHT22;10017;54.350;18.532;2022-07-01T12:28:36;30.60;1.00
19732;DHT22;10017;54.350;18.532;2022-07-01T12:31:10;30.70;1.00
19732;DHT22;10017;54.350;18.532;2022-07-01T12:33:49;30.80;1.00
19732;DHT22;10017;54.350;18.532;2022-07-01T12:36:24;30.80;1.00
19732;DHT22;10017;54.350;18.532;2022-07-01T12:39:03;30.80;1.00
19732;DHT22;10017;54.350;18.532;2022-07-01T12:41:36;30.70;1.00
19732;DHT22;10017;54.350;18.532;2022-07-01T12:44:28;30.60;1.00
19732;DHT22;10017;54.350;18.532;2022-07-01T12:47:26;30.70;1.00
19732;DHT22;10017;54.350;18.532;2022-07-01T12:50:16;30.70;1.00
19732;DHT22;10017;54.350;18.532;2022-07-01T12:53:11;30.70;1.00
19732;DHT22;10017;54.350;18.532;2022-07-01T12:55:46;30.70;1.00
19732;DHT22;10017;54.350;18.532;2022-07-01T12:58:23;30.80;1.00
19732;DHT22;10017;54.350;18.532;2022-07-01T13:00:57;30.80;1.00
19732;DHT22;10017;54.350;18.532;2022-07-01T13:03:30;30.80;1.00
19732;DHT22;10017;54.350;18.532;2022-07-01T13:06:09;30.80;1.00
19732;DHT22;10017;54.350;18.532;2022-07-01T13:08:41;30.70;1.00
19732;DHT22;10017;54.350;18.532;2022-07-01T13:11:15;30.60;1.00
19732;DHT22;10017;54.350;18.532;2022-07-01T13:13:47;30.50;1.00
19732;DHT22;10017;54.350;18.532;2022-07-01T13:16:18;30.50;1.00
19732;DHT22;10017;54.350;18.532;2022-07-01T13:18:50;30.40;1.00
19732;DHT22;10017;54.350;18.532;2022-07-01T13:21:25;30.50;1.00
19732;DHT22;10017;54.350;18.532;2022-07-01T13:23:57;30.60;1.00
19732;DHT22;10017;54.350;18.532;2022-07-01T13:26:49;30.60;1.00
19732;DHT22;10017;54.350;18.532;2022-07-01T13:29:21;30.60;1.00
19732;DHT22;10017;54.350;18.532;2022-07-01T13:31:58;30.70;1.00
19732;DHT22;10017;54.350;18.532;2022-07-01T13:34:32;30.70;1.00
19732;DHT22;10017;54.350;18.532;2022-07-01T13:37:05;30.70;1.00
19732;DHT22;10017;54.350;18.532;2022-07-01T13:39:39;30.60;1.00
19732;DHT22;10017;54.350;18.532;2022-07-01T13:42:12;30.60;1.00
19732;DHT22;10017;54.350;18.532;2022-07-01T13:44:44;30.50;1.00
19732;DHT22;10017;54.350;18.532;2022-07-01T13:47:16;30.30;99.90
19732;DHT22;10017;54.350;18.532;2022-07-01T13:49:48;30.20;99.90
19732;DHT22;10017;54.350;18.532;2022-07-01T13:52:21;30.20;99.90
19732;DHT22;10017;54.350;18.532;2022-07-01T13:54:56;30.10;99.90
19732;DHT22;10017;54.350;18.532;2022-07-01T13:57:28;30.10;99.90
19732;DHT22;10017;54.350;18.532;2022-07-01T14:00:00;30.00;99.90
19732;DHT22;10017;54.350;18.532;2022-07-01T14:02:35;29.90;92.50
19732;DHT22;10017;54.350;18.532;2022-07-01T14:05:10;29.90;37.40
19732;DHT22;10017;54.350;18.532;2022-07-01T14:07:45;29.90;26.80
19732;DHT22;10017;54.350;18.532;2022-07-01T14:10:17;29.90;48.00
19732;DHT22;10017;54.350;18.532;2022-07-01T14:12:49;29.90;33.40
19732;DHT22;10017;54.350;18.532;2022-07-01T14:15:21;29.90;20.70
19732;DHT22;10017;54.350;18.532;2022-07-01T14:17:53;29.90;1.00
19732;DHT22;10017;54.350;18.532;2022-07-01T14:20:27;29.90;20.90
19732;DHT22;10017;54.350;18.532;2022-07-01T14:22:59;29.90;56.00
19732;DHT22;10017;54.350;18.532;2022-07-01T14:25:32;29.90;99.90
19732;DHT22;10017;54.350;18.532;2022-07-01T14:28:04;29.90;93.70
19732;DHT22;10017;54.350;18.532;2022-07-01T14:30:40;30.00;46.70
19732;DHT22;10017;54.350;18.532;2022-07-01T14:33:13;30.10;24.50
19732;DHT22;10017;54.350;18.532;2022-07-01T14:35:45;30.10;1.00
19732;DHT22;10017;54.350;18.532;2022-07-01T14:38:19;30.10;1.00
19732;DHT22;10017;54.350;18.532;2022-07-01T14:40:52;30.00;1.00
19732;DHT22;10017;54.350;18.532;2022-07-01T14:43:24;30.10;1.00
19732;DHT22;10017;54.350;18.532;2022-07-01T14:45:56;30.10;1.00
19732;DHT22;10017;54.350;18.532;2022-07-01T14:48:30;30.10;1.00
19732;DHT22;10017;54.350;18.532;2022-07-01T14:51:02;30.20;1.00
19732;DHT22;10017;54.350;18.532;2022-07-01T14:53:35;30.30;1.00
19732;DHT22;10017;54.350;18.532;2022-07-01T14:56:07;30.30;1.00
19732;DHT22;10017;54.350;18.532;2022-07-01T14:58:41;30.30;1.00
19732;DHT22;10017;54.350;18.532;2022-07-01T15:01:14;30.30;1.00
19732;DHT22;10017;54.350;18.532;2022-07-01T15:03:47;30.30;1.00
19732;DHT22;10017;54.350;18.532;2022-07-01T15:06:21;30.30;1.00
19732;DHT22;10017;54.350;18.532;2022-07-01T15:08:53;30.30;1.00
19732;DHT22;10017;54.350;18.532;2022-07-01T15:11:25;30.30;1.00
19732;DHT22;10017;54.350;18.532;2022-07-01T15:13:59;30.40;20.60
19732;DHT22;10017;54.350;18.532;2022-07-01T15:16:35;30.40;69.40
19732;DHT22;10017;54.350;18.532;2022-07-01T15:19:07;30.30;99.90
19732;DHT22;10017;54.350;18.532;2022-07-01T15:21:39;30.30;99.90
19732;DHT22;10017;54.350;18.532;2022-07-01T15:24:13;30.20;99.90
19732;DHT22;10017;54.350;18.532;2022-07-01T15:26:45;30.20;1.00
19732;DHT22;10017;54.350;18.532;2022-07-01T15:29:20;30.10;1.00
19732;DHT22;10017;54.350;18.532;2022-07-01T15:31:52;30.00;1.00
19732;DHT22;10017;54.350;18.532;2022-07-01T15:34:25;30.00;1.00
19732;DHT22;10017;54.350;18.532;2022-07-01T15:36:59;29.80;1.00
19732;DHT22;10017;54.350;18.532;2022-07-01T15:39:34;29.80;1.00
19732;DHT22;10017;54.350;18.532;2022-07-01T15:42:06;29.80;1.00
19732;DHT22;10017;54.350;18.532;2022-07-01T15:44:38;29.80;1.00
19732;DHT22;10017;54.350;18.532;2022-07-01T15:47:11;29.90;1.00
19732;DHT22;10017;54.350;18.532;2022-07-01T15:50:01;29.90;1.00
19732;DHT22;10017;54.350;18.532;2022-07-01T15:52:35;29.80;1.00
19732;DHT22;10017;54.350;18.532;2022-07-01T15:55:07;29.80;1.00
19732;DHT22;10017;54.350;18.532;2022-07-01T15:57:39;29.80;1.00
19732;DHT22;10017;54.350;18.532;2022-07-01T16:00:12;29.50;1.00
19732;DHT22;10017;54.350;18.532;2022-07-01T16:02:45;29.50;1.00
19732;DHT22;10017;54.350;18.532;2022-07-01T16:05:17;29.30;1.00
19732;DHT22;10017;54.350;18.532;2022-07-01T16:07:57;29.30;1.00
19732;DHT22;10017;54.350;18.532;2022-07-01T16:10:47;29.10;1.00
19732;DHT22;10017;54.350;18.532;2022-07-01T16:13:27;29.00;1.00
19732;DHT22;10017;54.350;18.532;2022-07-01T16:16:03;28.80;1.00
19732;DHT22;10017;54.350;18.532;2022-07-01T16:18:37;28.70;1.00
19732;DHT22;10017;54.350;18.532;2022-07-01T16:21:10;28.60;1.00
19732;DHT22;10017;54.350;18.532;2022-07-01T16:23:47;28.50;1.00
19732;DHT22;10017;54.350;18.532;2022-07-01T16:26:21;28.40;1.00
19732;DHT22;10017;54.350;18.532;2022-07-01T16:28:56;28.30;1.00